sensor_id;sensor_type;location;lat;lon;timestamp;pressure;altitude;pressure_sealevel;temperature;humidity
64019;BME280;66942;52.138;5.216;2023-03-14T00:01:27;98864.0;;;14.4;63.81
64019;BME280;66942;52.138;5.216;2023-03-14T00:04:40;98864.0;;;14.71;63.16
64019;BME280;66942;52.138;5.216;2023-03-14T00:06:16;98868.0;;;14.64;63.36
64019;BME280;66942;52.138;5.216;2023-03-14T00:07:53;98868.0;;;14.74;63.08
64019;BME280;66942;52.138;5.216;2023-03-14T00:09:29;98865.0;;;14.82;62.64
64019;BME280;66942;52.138;5.216;2023-03-14T00:12:43;98860.0;;;14.78;62.75
64019;BME280;66942;52.138;5.216;2023-03-14T00:14:20;98860.0;;;14.65;62.7
64019;BME280;66942;52.138;5.216;2023-03-14T00:16:01;98861.0;;;14.78;62.6
64019;BME280;66942;52.138;5.216;2023-03-14T00:19:15;98872.0;;;14.87;62.26
64019;BME280;66942;52.138;5.216;2023-03-14T00:20:51;98863.0;;;14.89;62.39
64019;BME280;66942;52.138;5.216;2023-03-14T00:22:29;98864.0;;;14.84;62.26
64019;BME280;66942;52.138;5.216;2023-03-14T00:24:06;98860.0;;;14.68;62.33
64019;BME280;66942;52.138;5.216;2023-03-14T00:27:19;98856.0;;;14.73;62.06
64019;BME280;66942;52.138;5.216;2023-03-14T00:28:55;98861.0;;;14.8;61.33
64019;BME280;66942;52.138;5.216;2023-03-14T00:30:31;98857.0;;;14.83;61.28
64019;BME280;66942;52.138;5.216;2023-03-14T00:33:44;98859.0;;;14.75;61.56
64019;BME280;66942;52.138;5.216;2023-03-14T00:35:20;98863.0;;;14.43;62.04
64019;BME280;66942;52.138;5.216;2023-03-14T00:36:57;98866.0;;;14.5;62.0
64019;BME280;66942;52.138;5.216;2023-03-14T00:40:10;98863.0;;;14.29;62.2
64019;BME280;66942;52.138;5.216;2023-03-14T00:41:46;98862.0;;;14.43;61.71
64019;BME280;66942;52.138;5.216;2023-03-14T00:43:22;98862.0;;;14.36;61.63
64019;BME280;66942;52.138;5.216;2023-03-14T00:44:59;98863.0;;;14.53;61.08
64019;BME280;66942;52.138;5.216;2023-03-14T00:48:11;98866.0;;;14.18;61.58
64019;BME280;66942;52.138;5.216;2023-03-14T00:49:48;98875.0;;;14.24;61.33
64019;BME280;66942;52.138;5.216;2023-03-14T00:51:24;98872.0;;;14.24;60.97
64019;BME280;66942;52.138;5.216;2023-03-14T00:54:36;98871.0;;;14.1;61.18
64019;BME280;66942;52.138;5.216;2023-03-14T00:56:13;98867.0;;;14.13;61.13
64019;BME280;66942;52.138;5.216;2023-03-14T00:57:49;98868.0;;;14.36;60.75
64019;BME280;66942;52.138;5.216;2023-03-14T01:01:05;98859.0;;;14.33;60.68
64019;BME280;66942;52.138;5.216;2023-03-14T01:02:42;98865.0;;;14.32;61.16
64019;BME280;66942;52.138;5.216;2023-03-14T01:04:20;98862.0;;;14.21;61.42
64019;BME280;66942;52.138;5.216;2023-03-14T01:06:06;98864.0;;;14.47;60.96
64019;BME280;66942;52.138;5.216;2023-03-14T01:09:18;98868.0;;;14.37;61.27
64019;BME280;66942;52.138;5.216;2023-03-14T01:10:54;98870.0;;;14.54;60.73
64019;BME280;66942;52.138;5.216;2023-03-14T01:12:31;98877.0;;;14.64;60.88
64019;BME280;66942;52.138;5.216;2023-03-14T01:15:43;98870.0;;;14.71;60.53
64019;BME280;66942;52.138;5.216;2023-03-14T01:17:19;98875.0;;;14.56;61.31
64019;BME280;66942;52.138;5.216;2023-03-14T01:18:55;98874.0;;;14.4;61.9
64019;BME280;66942;52.138;5.216;2023-03-14T01:22:08;98873.0;;;14.36;62.3
64019;BME280;66942;52.138;5.216;2023-03-14T01:23:45;98877.0;;;14.15;62.89
64019;BME280;66942;52.138;5.216;2023-03-14T01:25:21;98876.0;;;14.25;62.97
64019;BME280;66942;52.138;5.216;2023-03-14T01:26:58;98886.0;;;14.15;63.43
64019;BME280;66942;52.138;5.216;2023-03-14T01:30:12;98877.0;;;14.12;63.65
64019;BME280;66942;52.138;5.216;2023-03-14T01:31:49;98881.0;;;14.2;63.59
64019;BME280;66942;52.138;5.216;2023-03-14T01:33:25;98885.0;;;14.03;63.95
64019;BME280;66942;52.138;5.216;2023-03-14T01:36:38;98874.0;;;13.95;64.22
64019;BME280;66942;52.138;5.216;2023-03-14T01:38:14;98878.0;;;13.91;64.16
64019;BME280;66942;52.138;5.216;2023-03-14T01:39:50;98874.0;;;13.91;64.1
64019;BME280;66942;52.138;5.216;2023-03-14T01:43:12;98865.0;;;13.96;64.16
64019;BME280;66942;52.138;5.216;2023-03-14T01:44:52;98870.0;;;14.03;63.46
64019;BME280;66942;52.138;5.216;2023-03-14T01:46:34;98871.0;;;14.23;62.95
64019;BME280;66942;52.138;5.216;2023-03-14T01:48:12;98869.0;;;14.11;63.32
64019;BME280;66942;52.138;5.216;2023-03-14T01:51:33;98866.0;;;14.13;63.15
64019;BME280;66942;52.138;5.216;2023-03-14T01:53:12;98865.0;;;14.25;62.91
64019;BME280;66942;52.138;5.216;2023-03-14T01:54:51;98868.0;;;14.05;63.16
64019;BME280;66942;52.138;5.216;2023-03-14T01:56:30;98866.0;;;14.01;63.16
64019;BME280;66942;52.138;5.216;2023-03-14T01:59:47;98867.0;;;14.26;62.29
64019;BME280;66942;52.138;5.216;2023-03-14T02:01:26;98859.0;;;14.3;62.2
64019;BME280;66942;52.138;5.216;2023-03-14T02:03:09;98858.0;;;14.35;62.04
64019;BME280;66942;52.138;5.216;2023-03-14T02:04:51;98853.0;;;14.4;61.71
64019;BME280;66942;52.138;5.216;2023-03-14T02:08:14;98843.0;;;14.54;61.2
64019;BME280;66942;52.138;5.216;2023-03-14T02:09:54;98843.0;;;14.46;61.25
64019;BME280;66942;52.138;5.216;2023-03-14T02:11:32;98841.0;;;14.22;61.84
64019;BME280;66942;52.138;5.216;2023-03-14T02:13:10;98839.0;;;14.43;61.35
64019;BME280;66942;52.138;5.216;2023-03-14T02:16:24;98842.0;;;14.29;61.29
64019;BME280;66942;52.138;5.216;2023-03-14T02:18:01;98836.0;;;14.47;61.11
64019;BME280;66942;52.138;5.216;2023-03-14T02:19:51;98835.0;;;14.34;61.01
64019;BME280;66942;52.138;5.216;2023-03-14T02:21:41;98832.0;;;14.08;61.78
64019;BME280;66942;52.138;5.216;2023-03-14T02:23:29;98830.0;;;14.41;60.98
64019;BME280;66942;52.138;5.216;2023-03-14T02:27:25;98827.0;;;14.17;61.77
64019;BME280;66942;52.138;5.216;2023-03-14T02:29:01;98825.0;;;13.94;62.09
64019;BME280;66942;52.138;5.216;2023-03-14T02:30:37;98821.0;;;13.92;62.3
64019;BME280;66942;52.138;5.216;2023-03-14T02:32:16;98817.0;;;13.94;62.24
64019;BME280;66942;52.138;5.216;2023-03-14T02:33:55;98823.0;;;14.15;61.95
64019;BME280;66942;52.138;5.216;2023-03-14T02:37:17;98831.0;;;13.98;62.16
64019;BME280;66942;52.138;5.216;2023-03-14T02:39:03;98813.0;;;14.11;62.25
64019;BME280;66942;52.138;5.216;2023-03-14T02:40:42;98823.0;;;14.14;62.35
64019;BME280;66942;52.138;5.216;2023-03-14T02:42:20;98821.0;;;14.19;62.33
64019;BME280;66942;52.138;5.216;2023-03-14T02:45:41;98824.0;;;14.32;61.85
64019;BME280;66942;52.138;5.216;2023-03-14T02:47:20;98822.0;;;14.23;61.95
64019;BME280;66942;52.138;5.216;2023-03-14T02:49:01;98813.0;;;14.03;62.26
64019;BME280;66942;52.138;5.216;2023-03-14T02:50:41;98812.0;;;14.19;62.08
64019;BME280;66942;52.138;5.216;2023-03-14T02:53:53;98813.0;;;14.04;62.37
64019;BME280;66942;52.138;5.216;2023-03-14T02:55:29;98809.0;;;13.86;62.98
64019;BME280;66942;52.138;5.216;2023-03-14T02:57:05;98813.0;;;14.12;62.04
64019;BME280;66942;52.138;5.216;2023-03-14T03:00:18;98806.0;;;14.27;61.77
64019;BME280;66942;52.138;5.216;2023-03-14T03:01:55;98813.0;;;14.28;61.63
64019;BME280;66942;52.138;5.216;2023-03-14T03:03:31;98807.0;;;14.38;61.53
64019;BME280;66942;52.138;5.216;2023-03-14T03:06:43;98807.0;;;14.12;61.87
64019;BME280;66942;52.138;5.216;2023-03-14T03:08:20;98808.0;;;14.41;61.31
64019;BME280;66942;52.138;5.216;2023-03-14T03:09:57;98809.0;;;14.29;61.62
64019;BME280;66942;52.138;5.216;2023-03-14T03:11:33;98808.0;;;14.24;61.77
64019;BME280;66942;52.138;5.216;2023-03-14T03:14:46;98805.0;;;14.06;62.1
64019;BME280;66942;52.138;5.216;2023-03-14T03:16:22;98800.0;;;14.06;62.4
64019;BME280;66942;52.138;5.216;2023-03-14T03:17:58;98808.0;;;14.08;62.29
64019;BME280;66942;52.138;5.216;2023-03-14T03:21:11;98795.0;;;14.12;61.92
64019;BME280;66942;52.138;5.216;2023-03-14T03:22:47;98802.0;;;14.31;61.74
64019;BME280;66942;52.138;5.216;2023-03-14T03:24:24;98790.0;;;14.25;61.62
64019;BME280;66942;52.138;5.216;2023-03-14T03:27:37;98791.0;;;14.34;61.63
64019;BME280;66942;52.138;5.216;2023-03-14T03:29:14;98789.0;;;14.33;61.54
64019;BME280;66942;52.138;5.216;2023-03-14T03:30:50;98788.0;;;14.33;61.74
64019;BME280;66942;52.138;5.216;2023-03-14T03:32:26;98783.0;;;14.43;61.23
64019;BME280;66942;52.138;5.216;2023-03-14T03:35:44;98787.0;;;14.4;61.25
64019;BME280;66942;52.138;5.216;2023-03-14T03:37:20;98778.0;;;14.15;61.59
64019;BME280;66942;52.138;5.216;2023-03-14T03:38:56;98775.0;;;14.11;61.71
64019;BME280;66942;52.138;5.216;2023-03-14T03:42:09;98783.0;;;14.26;61.62
64019;BME280;66942;52.138;5.216;2023-03-14T03:43:45;98790.0;;;14.4;61.01
64019;BME280;66942;52.138;5.216;2023-03-14T03:45:21;98787.0;;;14.36;61.05
64019;BME280;66942;52.138;5.216;2023-03-14T03:48:34;98780.0;;;14.49;60.63
64019;BME280;66942;52.138;5.216;2023-03-14T03:50:10;98783.0;;;14.43;60.91
64019;BME280;66942;52.138;5.216;2023-03-14T03:51:46;98782.0;;;14.43;60.62
64019;BME280;66942;52.138;5.216;2023-03-14T03:53:22;98780.0;;;14.46;60.51
64019;BME280;66942;52.138;5.216;2023-03-14T03:56:35;98780.0;;;14.23;61.03
64019;BME280;66942;52.138;5.216;2023-03-14T03:58:11;98781.0;;;14.55;60.12
64019;BME280;66942;52.138;5.216;2023-03-14T03:59:47;98782.0;;;14.52;60.21
64019;BME280;66942;52.138;5.216;2023-03-14T04:02:59;98778.0;;;14.38;60.63
64019;BME280;66942;52.138;5.216;2023-03-14T04:04:36;98780.0;;;14.46;60.36
64019;BME280;66942;52.138;5.216;2023-03-14T04:06:12;98774.0;;;14.43;60.25
64019;BME280;66942;52.138;5.216;2023-03-14T04:09:25;98780.0;;;14.34;60.87
64019;BME280;66942;52.138;5.216;2023-03-14T04:11:02;98776.0;;;14.27;60.78
64019;BME280;66942;52.138;5.216;2023-03-14T04:12:39;98782.0;;;14.31;60.63
64019;BME280;66942;52.138;5.216;2023-03-14T04:14:15;98778.0;;;14.47;59.96
64019;BME280;66942;52.138;5.216;2023-03-14T04:17:28;98776.0;;;14.33;60.24
64019;BME280;66942;52.138;5.216;2023-03-14T04:19:04;98781.0;;;14.46;59.98
64019;BME280;66942;52.138;5.216;2023-03-14T04:20:40;98774.0;;;14.55;59.66
64019;BME280;66942;52.138;5.216;2023-03-14T04:23:53;98780.0;;;14.48;59.9
64019;BME280;66942;52.138;5.216;2023-03-14T04:25:30;98781.0;;;14.65;59.6
64019;BME280;66942;52.138;5.216;2023-03-14T04:27:06;98782.0;;;14.63;59.46
64019;BME280;66942;52.138;5.216;2023-03-14T04:30:19;98786.0;;;14.69;59.45
64019;BME280;66942;52.138;5.216;2023-03-14T04:31:55;98789.0;;;14.45;60.11
64019;BME280;66942;52.138;5.216;2023-03-14T04:33:32;98790.0;;;14.4;60.4
64019;BME280;66942;52.138;5.216;2023-03-14T04:35:08;98776.0;;;14.86;59.05
64019;BME280;66942;52.138;5.216;2023-03-14T04:38:20;98788.0;;;14.25;60.33
64019;BME280;66942;52.138;5.216;2023-03-14T04:39:56;98774.0;;;14.76;59.11
64019;BME280;66942;52.138;5.216;2023-03-14T04:41:32;98775.0;;;14.57;59.89
64019;BME280;66942;52.138;5.216;2023-03-14T04:44:47;98772.0;;;14.67;59.52
64019;BME280;66942;52.138;5.216;2023-03-14T04:46:23;98769.0;;;14.57;59.87
64019;BME280;66942;52.138;5.216;2023-03-14T04:47:59;98767.0;;;14.71;59.58
64019;BME280;66942;52.138;5.216;2023-03-14T04:51:11;98766.0;;;14.69;59.74
64019;BME280;66942;52.138;5.216;2023-03-14T04:52:47;98762.0;;;14.8;59.47
64019;BME280;66942;52.138;5.216;2023-03-14T04:54:23;98760.0;;;14.46;60.78
64019;BME280;66942;52.138;5.216;2023-03-14T04:57:36;98772.0;;;14.6;61.04
64019;BME280;66942;52.138;5.216;2023-03-14T04:59:12;98772.0;;;14.65;61.5
64019;BME280;66942;52.138;5.216;2023-03-14T05:00:49;98769.0;;;14.68;62.05
64019;BME280;66942;52.138;5.216;2023-03-14T05:02:26;98763.0;;;14.67;62.14
64019;BME280;66942;52.138;5.216;2023-03-14T05:05:38;98765.0;;;14.55;62.54
64019;BME280;66942;52.138;5.216;2023-03-14T05:07:14;98759.0;;;14.52;62.83
64019;BME280;66942;52.138;5.216;2023-03-14T05:08:50;98756.0;;;14.44;63.2
64019;BME280;66942;52.138;5.216;2023-03-14T05:12:03;98755.0;;;14.39;63.29
64019;BME280;66942;52.138;5.216;2023-03-14T05:13:39;98758.0;;;14.09;64.1
64019;BME280;66942;52.138;5.216;2023-03-14T05:15:15;98757.0;;;14.16;64.47
64019;BME280;66942;52.138;5.216;2023-03-14T05:18:27;98755.0;;;13.88;65.3
64019;BME280;66942;52.138;5.216;2023-03-14T05:20:04;98761.0;;;14.0;65.09
64019;BME280;66942;52.138;5.216;2023-03-14T05:21:40;98757.0;;;14.1;64.95
64019;BME280;66942;52.138;5.216;2023-03-14T05:23:16;98756.0;;;14.25;64.61
64019;BME280;66942;52.138;5.216;2023-03-14T05:26:29;98750.0;;;14.34;64.23
64019;BME280;66942;52.138;5.216;2023-03-14T05:28:06;98750.0;;;14.27;64.64
64019;BME280;66942;52.138;5.216;2023-03-14T05:29:42;98748.0;;;14.26;64.52
64019;BME280;66942;52.138;5.216;2023-03-14T05:32:54;98745.0;;;14.22;64.8
64019;BME280;66942;52.138;5.216;2023-03-14T05:34:30;98745.0;;;14.19;64.89
64019;BME280;66942;52.138;5.216;2023-03-14T05:36:07;98743.0;;;14.17;64.77
64019;BME280;66942;52.138;5.216;2023-03-14T05:39:20;98736.0;;;13.89;65.91
64019;BME280;66942;52.138;5.216;2023-03-14T05:40:56;98730.0;;;14.12;65.3
64019;BME280;66942;52.138;5.216;2023-03-14T05:42:33;98735.0;;;14.09;65.27
64019;BME280;66942;52.138;5.216;2023-03-14T05:44:09;98740.0;;;13.97;65.75
64019;BME280;66942;52.138;5.216;2023-03-14T05:47:21;98739.0;;;14.09;65.31
64019;BME280;66942;52.138;5.216;2023-03-14T05:48:58;98737.0;;;14.17;65.3
64019;BME280;66942;52.138;5.216;2023-03-14T05:50:36;98732.0;;;14.19;65.13
64019;BME280;66942;52.138;5.216;2023-03-14T05:53:48;98735.0;;;14.16;65.22
64019;BME280;66942;52.138;5.216;2023-03-14T05:55:24;98739.0;;;14.04;65.38
64019;BME280;66942;52.138;5.216;2023-03-14T05:57:01;98743.0;;;13.88;65.94
64019;BME280;66942;52.138;5.216;2023-03-14T06:00:14;98740.0;;;13.89;66.09
64019;BME280;66942;52.138;5.216;2023-03-14T06:01:50;98747.0;;;13.92;65.97
64019;BME280;66942;52.138;5.216;2023-03-14T06:03:26;98744.0;;;13.77;66.45
64019;BME280;66942;52.138;5.216;2023-03-14T06:06:41;98747.0;;;13.63;66.87
64019;BME280;66942;52.138;5.216;2023-03-14T06:08:17;98755.0;;;13.76;66.97
64019;BME280;66942;52.138;5.216;2023-03-14T06:09:53;98759.0;;;13.69;66.97
64019;BME280;66942;52.138;5.216;2023-03-14T06:11:29;98755.0;;;13.91;66.3
64019;BME280;66942;52.138;5.216;2023-03-14T06:14:41;98762.0;;;13.94;66.39
64019;BME280;66942;52.138;5.216;2023-03-14T06:16:17;98766.0;;;13.9;66.53
64019;BME280;66942;52.138;5.216;2023-03-14T06:17:54;98780.0;;;13.68;67.08
64019;BME280;66942;52.138;5.216;2023-03-14T06:21:07;98806.0;;;13.74;67.3
64019;BME280;66942;52.138;5.216;2023-03-14T06:22:44;98809.0;;;13.83;67.08
64019;BME280;66942;52.138;5.216;2023-03-14T06:24:20;98808.0;;;13.79;67.27
64019;BME280;66942;52.138;5.216;2023-03-14T06:27:32;98820.0;;;13.72;67.27
64019;BME280;66942;52.138;5.216;2023-03-14T06:29:10;98830.0;;;13.59;67.47
64019;BME280;66942;52.138;5.216;2023-03-14T06:30:45;98834.0;;;13.37;67.44
64019;BME280;66942;52.138;5.216;2023-03-14T06:32:22;98840.0;;;13.21;67.16
64019;BME280;66942;52.138;5.216;2023-03-14T06:35:35;98851.0;;;13.49;65.5
64019;BME280;66942;52.138;5.216;2023-03-14T06:37:11;98855.0;;;13.07;65.47
64019;BME280;66942;52.138;5.216;2023-03-14T06:38:47;98868.0;;;12.95;65.67
64019;BME280;66942;52.138;5.216;2023-03-14T06:41:59;98875.0;;;12.9;65.34
64019;BME280;66942;52.138;5.216;2023-03-14T06:43:35;98881.0;;;12.68;65.48
64019;BME280;66942;52.138;5.216;2023-03-14T06:45:12;98889.0;;;12.95;64.94
64019;BME280;66942;52.138;5.216;2023-03-14T06:48:25;98893.0;;;12.8;65.25
64019;BME280;66942;52.138;5.216;2023-03-14T06:50:02;98903.0;;;12.62;66.16
64019;BME280;66942;52.138;5.216;2023-03-14T06:51:39;98905.0;;;12.62;66.08
64019;BME280;66942;52.138;5.216;2023-03-14T06:53:16;98909.0;;;12.68;65.95
64019;BME280;66942;52.138;5.216;2023-03-14T06:56:29;98911.0;;;12.93;65.31
64019;BME280;66942;52.138;5.216;2023-03-14T06:58:05;98919.0;;;12.95;65.37
64019;BME280;66942;52.138;5.216;2023-03-14T06:59:41;98923.0;;;12.79;65.94
64019;BME280;66942;52.138;5.216;2023-03-14T07:02:58;98928.0;;;12.74;66.13
64019;BME280;66942;52.138;5.216;2023-03-14T07:04:34;98934.0;;;12.86;65.37
64019;BME280;66942;52.138;5.216;2023-03-14T07:06:10;98941.0;;;12.93;65.41
64019;BME280;66942;52.138;5.216;2023-03-14T07:09:23;98942.0;;;12.72;65.75
64019;BME280;66942;52.138;5.216;2023-03-14T07:10:59;98944.0;;;12.79;65.77
64019;BME280;66942;52.138;5.216;2023-03-14T07:12:35;98964.0;;;12.84;65.52
64019;BME280;66942;52.138;5.216;2023-03-14T07:14:11;98970.0;;;13.03;64.97
64019;BME280;66942;52.138;5.216;2023-03-14T07:17:23;98982.0;;;12.91;65.23
64019;BME280;66942;52.138;5.216;2023-03-14T07:19:00;98995.0;;;12.86;65.19
64019;BME280;66942;52.138;5.216;2023-03-14T07:20:36;99003.0;;;12.66;65.78
64019;BME280;66942;52.138;5.216;2023-03-14T07:23:49;99015.0;;;12.75;65.02
64019;BME280;66942;52.138;5.216;2023-03-14T07:25:25;99025.0;;;12.45;65.56
64019;BME280;66942;52.138;5.216;2023-03-14T07:27:02;99036.0;;;12.55;65.02
64019;BME280;66942;52.138;5.216;2023-03-14T07:30:15;99043.0;;;12.63;64.77
64019;BME280;66942;52.138;5.216;2023-03-14T07:31:50;99055.0;;;12.71;64.63
64019;BME280;66942;52.138;5.216;2023-03-14T07:33:26;99060.0;;;12.38;65.27
64019;BME280;66942;52.138;5.216;2023-03-14T07:35:03;99071.0;;;11.88;65.94
64019;BME280;66942;52.138;5.216;2023-03-14T07:38:16;99085.0;;;11.75;66.0
64019;BME280;66942;52.138;5.216;2023-03-14T07:39:52;99090.0;;;12.06;65.05
64019;BME280;66942;52.138;5.216;2023-03-14T07:41:28;99095.0;;;11.8;65.33
64019;BME280;66942;52.138;5.216;2023-03-14T07:44:41;99111.0;;;12.09;64.33
64019;BME280;66942;52.138;5.216;2023-03-14T07:46:17;99115.0;;;12.05;64.3
64019;BME280;66942;52.138;5.216;2023-03-14T07:47:52;99121.0;;;11.59;65.22
64019;BME280;66942;52.138;5.216;2023-03-14T07:51:05;99124.0;;;11.77;64.67
64019;BME280;66942;52.138;5.216;2023-03-14T07:52:41;99132.0;;;11.64;64.85
64019;BME280;66942;52.138;5.216;2023-03-14T07:54:17;99141.0;;;11.71;65.19
64019;BME280;66942;52.138;5.216;2023-03-14T07:57:29;99151.0;;;11.96;64.36
64019;BME280;66942;52.138;5.216;2023-03-14T07:59:05;99159.0;;;11.79;64.84
64019;BME280;66942;52.138;5.216;2023-03-14T08:00:42;99174.0;;;11.76;65.5
64019;BME280;66942;52.138;5.216;2023-03-14T08:02:19;99186.0;;;11.65;65.41
64019;BME280;66942;52.138;5.216;2023-03-14T08:05:34;99197.0;;;11.41;65.87
64019;BME280;66942;52.138;5.216;2023-03-14T08:07:10;99224.0;;;11.18;65.87
64019;BME280;66942;52.138;5.216;2023-03-14T08:08:46;99231.0;;;11.1;65.85
64019;BME280;66942;52.138;5.216;2023-03-14T08:11:58;99237.0;;;10.52;66.36
64019;BME280;66942;52.138;5.216;2023-03-14T08:13:35;99250.0;;;10.58;66.44
64019;BME280;66942;52.138;5.216;2023-03-14T08:15:13;99261.0;;;10.72;65.52
64019;BME280;66942;52.138;5.216;2023-03-14T08:18:26;99274.0;;;10.87;65.0
64019;BME280;66942;52.138;5.216;2023-03-14T08:20:03;99284.0;;;10.89;65.44
64019;BME280;66942;52.138;5.216;2023-03-14T08:21:40;99291.0;;;10.65;65.69
64019;BME280;66942;52.138;5.216;2023-03-14T08:23:16;99312.0;;;10.36;66.47
64019;BME280;66942;52.138;5.216;2023-03-14T08:26:27;99310.0;;;9.88;67.1
64019;BME280;66942;52.138;5.216;2023-03-14T08:28:04;99326.0;;;10.01;67.24
64019;BME280;66942;52.138;5.216;2023-03-14T08:29:41;99338.0;;;10.06;66.7
64019;BME280;66942;52.138;5.216;2023-03-14T08:32:53;99345.0;;;9.34;67.64
64019;BME280;66942;52.138;5.216;2023-03-14T08:34:32;99351.0;;;9.58;67.23
64019;BME280;66942;52.138;5.216;2023-03-14T08:36:10;99361.0;;;9.31;67.89
64019;BME280;66942;52.138;5.216;2023-03-14T08:39:22;99374.0;;;9.47;66.91
64019;BME280;66942;52.138;5.216;2023-03-14T08:40:59;99365.0;;;9.75;67.02
64019;BME280;66942;52.138;5.216;2023-03-14T08:42:38;99385.0;;;9.98;66.58
64019;BME280;66942;52.138;5.216;2023-03-14T08:44:14;99400.0;;;9.63;66.05
64019;BME280;66942;52.138;5.216;2023-03-14T08:47:26;99408.0;;;9.64;65.73
64019;BME280;66942;52.138;5.216;2023-03-14T08:49:02;99416.0;;;9.57;66.58
64019;BME280;66942;52.138;5.216;2023-03-14T08:50:39;99427.0;;;9.86;67.12
64019;BME280;66942;52.138;5.216;2023-03-14T08:53:53;99422.0;;;9.53;67.42
64019;BME280;66942;52.138;5.216;2023-03-14T08:55:29;99439.0;;;9.56;66.27
64019;BME280;66942;52.138;5.216;2023-03-14T08:57:05;99442.0;;;9.67;66.16
64019;BME280;66942;52.138;5.216;2023-03-14T09:00:19;99448.0;;;9.84;66.41
64019;BME280;66942;52.138;5.216;2023-03-14T09:01:55;99451.0;;;10.0;65.61
64019;BME280;66942;52.138;5.216;2023-03-14T09:03:31;99476.0;;;9.71;67.08
64019;BME280;66942;52.138;5.216;2023-03-14T09:05:08;99472.0;;;10.14;66.16
64019;BME280;66942;52.138;5.216;2023-03-14T09:08:21;99485.0;;;10.27;64.22
64019;BME280;66942;52.138;5.216;2023-03-14T09:09:57;99492.0;;;10.39;64.1
64019;BME280;66942;52.138;5.216;2023-03-14T09:11:33;99502.0;;;10.54;65.34
64019;BME280;66942;52.138;5.216;2023-03-14T09:14:45;99510.0;;;10.58;63.76
64019;BME280;66942;52.138;5.216;2023-03-14T09:16:21;99523.0;;;10.76;64.41
64019;BME280;66942;52.138;5.216;2023-03-14T09:17:57;99523.0;;;9.93;64.48
64019;BME280;66942;52.138;5.216;2023-03-14T09:21:10;99541.0;;;10.24;64.55
64019;BME280;66942;52.138;5.216;2023-03-14T09:22:46;99550.0;;;9.82;63.68
64019;BME280;66942;52.138;5.216;2023-03-14T09:24:22;99557.0;;;9.92;63.63
64019;BME280;66942;52.138;5.216;2023-03-14T09:25:58;99565.0;;;10.03;63.24
64019;BME280;66942;52.138;5.216;2023-03-14T09:29:12;99583.0;;;10.0;63.13
64019;BME280;66942;52.138;5.216;2023-03-14T09:30:47;99584.0;;;10.09;63.92
64019;BME280;66942;52.138;5.216;2023-03-14T09:32:23;99599.0;;;9.97;64.48
64019;BME280;66942;52.138;5.216;2023-03-14T09:35:36;99597.0;;;9.6;62.96
64019;BME280;66942;52.138;5.216;2023-03-14T09:37:12;99596.0;;;9.69;62.68
64019;BME280;66942;52.138;5.216;2023-03-14T09:38:48;99608.0;;;9.65;62.7
64019;BME280;66942;52.138;5.216;2023-03-14T09:42:13;99614.0;;;9.68;62.54
64019;BME280;66942;52.138;5.216;2023-03-14T09:43:58;99621.0;;;10.0;63.1
64019;BME280;66942;52.138;5.216;2023-03-14T09:45:40;99634.0;;;10.19;62.92
64019;BME280;66942;52.138;5.216;2023-03-14T09:47:18;99644.0;;;10.38;63.65
64019;BME280;66942;52.138;5.216;2023-03-14T09:48:55;99649.0;;;10.28;63.95
64019;BME280;66942;52.138;5.216;2023-03-14T09:52:16;99658.0;;;10.52;63.83
64019;BME280;66942;52.138;5.216;2023-03-14T09:53:55;99670.0;;;10.52;62.15
64019;BME280;66942;52.138;5.216;2023-03-14T09:55:31;99665.0;;;10.62;62.04
64019;BME280;66942;52.138;5.216;2023-03-14T09:58:52;99673.0;;;10.84;63.11
64019;BME280;66942;52.138;5.216;2023-03-14T10:00:31;99683.0;;;10.48;62.35
64019;BME280;66942;52.138;5.216;2023-03-14T10:02:15;99686.0;;;10.33;60.7
64019;BME280;66942;52.138;5.216;2023-03-14T10:03:54;99701.0;;;10.71;61.86
64019;BME280;66942;52.138;5.216;2023-03-14T10:07:11;99721.0;;;10.7;63.05
64019;BME280;66942;52.138;5.216;2023-03-14T10:08:50;99724.0;;;10.45;63.45
64019;BME280;66942;52.138;5.216;2023-03-14T10:10:26;99727.0;;;9.66;63.74
64019;BME280;66942;52.138;5.216;2023-03-14T10:12:03;99738.0;;;9.73;63.38
64019;BME280;66942;52.138;5.216;2023-03-14T10:15:29;99759.0;;;9.97;64.3
64019;BME280;66942;52.138;5.216;2023-03-14T10:17:08;99759.0;;;9.81;65.03
64019;BME280;66942;52.138;5.216;2023-03-14T10:18:46;99762.0;;;9.96;64.58
64019;BME280;66942;52.138;5.216;2023-03-14T10:20:28;99768.0;;;9.86;62.21
64019;BME280;66942;52.138;5.216;2023-03-14T10:23:50;99771.0;;;9.96;61.42
64019;BME280;66942;52.138;5.216;2023-03-14T10:25:28;99783.0;;;10.25;62.17
64019;BME280;66942;52.138;5.216;2023-03-14T10:27:18;99787.0;;;10.28;61.9
64019;BME280;66942;52.138;5.216;2023-03-14T10:29:02;99795.0;;;10.55;63.84
64019;BME280;66942;52.138;5.216;2023-03-14T10:32:20;99798.0;;;10.84;64.64
64019;BME280;66942;52.138;5.216;2023-03-14T10:34:04;99805.0;;;11.01;63.82
64019;BME280;66942;52.138;5.216;2023-03-14T10:35:41;99807.0;;;11.01;60.38
64019;BME280;66942;52.138;5.216;2023-03-14T10:37:21;99819.0;;;11.27;61.77
64019;BME280;66942;52.138;5.216;2023-03-14T10:40:53;99831.0;;;11.25;60.93
64019;BME280;66942;52.138;5.216;2023-03-14T10:42:32;99834.0;;;11.21;59.87
64019;BME280;66942;52.138;5.216;2023-03-14T10:44:11;99844.0;;;10.75;59.19
64019;BME280;66942;52.138;5.216;2023-03-14T10:45:52;99850.0;;;10.43;60.66
64019;BME280;66942;52.138;5.216;2023-03-14T10:47:32;99871.0;;;10.34;61.63
64019;BME280;66942;52.138;5.216;2023-03-14T10:51:05;99883.0;;;10.57;61.23
64019;BME280;66942;52.138;5.216;2023-03-14T10:52:47;99886.0;;;10.71;61.52
64019;BME280;66942;52.138;5.216;2023-03-14T10:54:24;99910.0;;;10.3;58.73
64019;BME280;66942;52.138;5.216;2023-03-14T10:56:06;99905.0;;;10.23;59.44
64019;BME280;66942;52.138;5.216;2023-03-14T10:59:19;99917.0;;;9.84;59.69
64019;BME280;66942;52.138;5.216;2023-03-14T11:01:04;99917.0;;;10.1;58.33
64019;BME280;66942;52.138;5.216;2023-03-14T11:02:57;99926.0;;;10.23;58.43
64019;BME280;66942;52.138;5.216;2023-03-14T11:04:52;99941.0;;;10.45;57.07
64019;BME280;66942;52.138;5.216;2023-03-14T11:06:41;99951.0;;;10.06;55.71
64019;BME280;66942;52.138;5.216;2023-03-14T11:10:10;99955.0;;;10.6;57.59
64019;BME280;66942;52.138;5.216;2023-03-14T11:11:54;99950.0;;;10.23;54.88
64019;BME280;66942;52.138;5.216;2023-03-14T11:13:43;99966.0;;;10.36;55.41
64019;BME280;66942;52.138;5.216;2023-03-14T11:15:30;99980.0;;;10.95;59.05
64019;BME280;66942;52.138;5.216;2023-03-14T11:17:15;99980.0;;;11.42;55.53